Time;durP1;ratioP1;P1;durP2;ratioP2;P2;SDS_P1;SDS_P2;PMS_P1;PMS_P2;Temp;Humidity;BMP_temperature;BMP_pressure;BME280_temperature;BME280_humidity;BME280_pressure;Samples;Min_cycle;Max_cycle;Signal;HPM_P1;HPM_P2
2022/09/08 00:02:38;;;;;;;;;;;17.50;99.90;;;;;;5938361;23;19914;-74
2022/09/08 00:05:53;;;;;;;;;;;17.50;99.90;;;;;;5956661;24;19930;-74
2022/09/08 00:19:17;;;;;;;;;;;17.50;99.90;;;;;;5928343;24;19940;-75
2022/09/08 00:22:17;;;;;;;;;;;17.60;99.90;;;;;;5848302;24;19916;-72
2022/09/08 00:28:53;;;;;;;;;;;17.50;99.90;;;;;;5984491;23;19914;-75
2022/09/08 00:52:01;;;;;;;;;;;17.30;99.90;;;;;;5785219;24;20025;-76
2022/09/08 01:01:51;;;;;;;;;;;17.40;99.90;;;;;;5763156;24;19921;-74
2022/09/08 01:46:54;;;;;;;;;;;17.50;99.90;;;;;;6130758;23;20239;-76
2022/09/08 01:53:42;;;;;;;;;;;17.60;99.90;;;;;;6025263;23;20242;-74
2022/09/08 01:56:59;;;;;;;;;;;17.60;99.90;;;;;;5899943;24;20334;-73
2022/09/08 02:00:24;;;;;;;;;;;17.60;99.90;;;;;;5961092;24;19921;-73
2022/09/08 02:10:40;;;;;;;;;;;17.70;99.90;;;;;;5873164;24;20293;-74
2022/09/08 02:17:16;;;;;;;;;;;;;;;;;;;;;
2022/09/08 02:19:51;;;;;;;;;;;17.60;99.90;;;;;;5941663;23;20083;-75
2022/09/08 02:22:44;;;;;;;;;;;17.70;99.90;;;;;;6024404;23;19921;-73
2022/09/08 02:25:59;;;;;;;;;;;;;;;;;;;;;
2022/09/08 02:29:12;;;;;;;;;;;17.70;99.90;;;;;;6014648;23;20009;-72
2022/09/08 02:32:19;;;;;;;;;;;17.70;99.90;;;;;;6013169;23;19945;-73
2022/09/08 02:38:23;;;;;;;;;;;;;;;;;;;;;
2022/09/08 02:43:57;;;;;;;;;;;17.60;99.90;;;;;;6096266;23;19948;-73
2022/09/08 02:47:31;;;;;;;;;;;17.60;99.90;;;;;;6105055;23;19912;-72
2022/09/08 02:50:27;;;;;;;;;;;;;;;;;;;;;
2022/09/08 02:54:00;;;;;;;;;;;;;;;;;;;;;
2022/09/08 03:00:09;;;;;;;;;;;;;;;;;;;;;
2022/09/08 03:03:16;;;;;;;;;;;17.60;99.90;;;;;;6095925;23;19993;-74
2022/09/08 03:06:30;;;;;;;;;;;17.50;99.90;;;;;;6069659;23;19913;-73
2022/09/08 04:26:29;;;;;;;;;;;17.40;99.90;;;;;;6218611;23;19921;-75
2022/09/08 04:32:32;;;;;;;;;;;17.60;99.90;;;;;;6188338;23;19922;-81
2022/09/08 04:35:00;;;;;;;;;;;17.40;99.90;;;;;;6194688;23;19919;-73
2022/09/08 04:38:04;;;;;;;;;;;;;;;;;;;;;
2022/09/08 04:45:09;;;;;;;;;;;;;;;;;;;;;
2022/09/08 04:48:04;;;;;;;;;;;17.30;99.90;;;;;;6008646;23;19921;-80
2022/09/08 04:50:41;;;;;;;;;;;17.20;99.90;;;;;;6013543;23;20001;-80
2022/09/08 05:00:41;;;;;;;;;;;17.10;99.90;;;;;;5895717;24;19921;-82
2022/09/08 05:11:32;;;;;;;;;;;;;;;;;;;;;
2022/09/08 05:25:26;;;;;;;;;;;16.80;99.90;;;;;;5980777;24;19914;-83
2022/09/08 05:39:07;;;;;;;;;;;16.90;99.90;;;;;;5075675;28;19917;-80
2022/09/08 05:59:17;;;;;;;;;;;;;;;;;;;;;
2022/09/08 07:51:15;;;;;;;;;;;15.90;99.90;;;;;;6116127;22;20005;-78
2022/09/08 07:54:06;;;;;;;;;;;15.90;99.90;;;;;;6195403;23;19919;-80
2022/09/08 08:00:19;;;;;;;;;;;15.90;99.90;;;;;;6247533;23;20326;-83
2022/09/08 08:49:02;;;;;;;;;;;15.70;99.90;;;;;;6179928;23;19951;-81
2022/09/08 09:24:21;;;;;;;;;;;15.70;99.90;;;;;;6274875;22;19926;-78
2022/09/08 09:26:49;;;;;;;;;;;15.70;99.90;;;;;;6121156;22;20329;-73
2022/09/08 09:29:21;;;;;;;;;;;15.70;99.90;;;;;;6146327;22;19919;-73
2022/09/08 09:32:22;;;;;;;;;;;;;;;;;;;;;
2022/09/08 09:35:13;;;;;;;;;;;15.70;99.90;;;;;;6145041;22;19950;-79
2022/09/08 09:38:38;;;;;;;;;;;;;;;;;;;;;
2022/09/08 09:41:09;;;;;;;;;;;15.80;99.90;;;;;;6186299;23;20401;-74
2022/09/08 09:46:47;;;;;;;;;;;15.90;99.90;;;;;;6144080;22;20379;-77
2022/09/08 09:49:22;;;;;;;;;;;16.00;99.90;;;;;;6120743;22;19962;-74
2022/09/08 09:58:44;;;;;;;;;;;16.20;99.90;;;;;;6144480;22;19941;-73
2022/09/08 10:01:25;;;;;;;;;;;16.20;99.90;;;;;;6145324;22;20265;-73
2022/09/08 10:03:56;;;;;;;;;;;16.30;99.90;;;;;;6120625;22;19915;-73
2022/09/08 10:06:30;;;;;;;;;;;16.20;99.90;;;;;;6144950;22;20236;-73
2022/09/08 10:09:22;;;;;;;;;;;16.30;99.90;;;;;;6121170;22;19911;-79
2022/09/08 10:11:55;;;;;;;;;;;16.30;99.90;;;;;;6120949;22;20313;-75
2022/09/08 10:14:50;;;;;;;;;;;16.30;99.90;;;;;;6121264;22;19964;-77
2022/09/08 10:32:31;;;;;;;;;;;16.40;99.90;;;;;;6168647;23;20296;-74
2022/09/08 10:35:16;;;;;;;;;;;16.40;99.90;;;;;;6154903;23;20332;-75
2022/09/08 10:37:57;;;;;;;;;;;16.50;99.90;;;;;;6155466;23;19924;-74
2022/09/08 10:41:10;;;;;;;;;;;;;;;;;;;;;
2022/09/08 10:44:37;;;;;;;;;;;16.50;99.90;;;;;;6061188;23;19980;-78
2022/09/08 10:48:08;;;;;;;;;;;;;;;;;;;;;
2022/09/08 11:24:00;;;;;;;;;;;;;;;;;;;;;
2022/09/08 11:27:01;;;;;;;;;;;;;;;;;;;;;
2022/09/08 11:30:34;;;;;;;;;;;17.30;99.90;;;;;;6177723;23;19974;-81
2022/09/08 11:33:17;;;;;;;;;;;17.40;99.90;;;;;;6157534;23;19995;-76
2022/09/08 11:36:15;;;;;;;;;;;17.30;99.90;;;;;;6182812;23;19924;-78
2022/09/08 11:38:47;;;;;;;;;;;17.50;99.90;;;;;;6115895;23;19921;-75
2022/09/08 11:41:19;;;;;;;;;;;17.50;99.90;;;;;;6156088;23;19921;-75
2022/09/08 11:43:51;;;;;;;;;;;17.50;99.90;;;;;;6156142;23;19920;-73
2022/09/08 11:46:54;;;;;;;;;;;17.60;99.90;;;;;;6181024;23;19924;-77
2022/09/08 13:12:50;;;;;;;;;;;18.30;99.90;;;;;;6165153;22;19927;-75
2022/09/08 13:15:41;;;;;;;;;;;18.40;99.90;;;;;;6150858;23;19920;-77
2022/09/08 13:18:06;;;;;;;;;;;18.50;99.90;;;;;;6126452;23;19966;-76
2022/09/08 13:20:35;;;;;;;;;;;18.50;99.90;;;;;;6150870;23;19924;-73
2022/09/08 13:23:13;;;;;;;;;;;18.50;99.90;;;;;;6150612;23;19917;-73
2022/09/08 13:25:41;;;;;;;;;;;18.50;99.90;;;;;;6150891;23;19943;-75
2022/09/08 13:28:26;;;;;;;;;;;18.50;99.90;;;;;;6150865;23;19939;-74
2022/09/08 13:31:05;;;;;;;;;;;18.50;99.90;;;;;;6150552;23;20323;-75
2022/09/08 13:33:50;;;;;;;;;;;18.50;99.90;;;;;;6150736;23;19917;-73
2022/09/08 13:36:43;;;;;;;;;;;18.50;99.90;;;;;;6150507;23;19917;-74
2022/09/08 13:39:29;;;;;;;;;;;18.40;99.90;;;;;;6132570;23;19961;-75
2022/09/08 13:42:00;;;;;;;;;;;18.00;99.90;;;;;;6150605;23;19921;-74
2022/09/08 13:44:35;;;;;;;;;;;17.80;99.90;;;;;;6150711;23;20347;-75
2022/09/08 14:32:43;;;;;;;;;;;18.10;99.90;;;;;;6159399;23;19921;-76
2022/09/08 14:56:19;;;;;;;;;;;;;;;;;;;;;
2022/09/08 14:59:21;;;;;;;;;;;18.00;99.90;;;;;;6239912;23;19973;-77
2022/09/08 15:02:17;;;;;;;;;;;18.00;99.90;;;;;;6214527;23;20305;-75
2022/09/08 15:11:35;;;;;;;;;;;17.90;99.90;;;;;;6125521;23;19921;-76
2022/09/08 15:18:28;;;;;;;;;;;17.90;99.90;;;;;;6150044;23;19954;-83
2022/09/08 15:21:14;;;;;;;;;;;18.00;99.90;;;;;;6124252;23;20020;-78
2022/09/08 15:29:55;;;;;;;;;;;18.20;99.90;;;;;;6155359;23;20305;-75
2022/09/08 15:32:58;;;;;;;;;;;;;;;;;;;;;
2022/09/08 15:35:49;;;;;;;;;;;18.30;99.90;;;;;;6180039;23;19992;-84
2022/09/08 15:38:59;;;;;;;;;;;;;;;;;;;;;
2022/09/08 15:42:07;;;;;;;;;;;18.50;99.90;;;;;;6180094;23;19943;-79
2022/09/08 15:48:21;;;;;;;;;;;18.50;99.90;;;;;;6093549;23;19924;-78
2022/09/08 15:51:26;;;;;;;;;;;18.50;99.90;;;;;;6076932;23;20352;-78
2022/09/08 15:54:15;;;;;;;;;;;18.60;99.90;;;;;;6180778;23;19956;-84
2022/09/08 16:07:18;;;;;;;;;;;18.70;99.90;;;;;;6182276;23;20249;-78
2022/09/08 16:10:04;;;;;;;;;;;18.70;99.90;;;;;;6135689;23;19923;-80
2022/09/08 16:12:40;;;;;;;;;;;18.70;99.90;;;;;;6156534;23;19959;-79
2022/09/08 16:15:11;;;;;;;;;;;18.70;99.90;;;;;;6180292;23;19920;-76
2022/09/08 16:17:58;;;;;;;;;;;18.70;99.90;;;;;;6180241;23;19916;-77
2022/09/08 16:20:25;;;;;;;;;;;18.60;99.90;;;;;;6161872;22;19973;-79
2022/09/08 16:22:54;;;;;;;;;;;18.60;99.90;;;;;;6155818;23;19916;-77
2022/09/08 16:25:45;;;;;;;;;;;18.60;99.90;;;;;;6155397;23;19916;-78
2022/09/08 16:28:26;;;;;;;;;;;18.50;99.90;;;;;;6141652;23;19940;-78
2022/09/08 16:31:14;;;;;;;;;;;18.60;99.90;;;;;;6156232;23;19917;-78
2022/09/08 16:34:04;;;;;;;;;;;18.50;99.90;;;;;;6155976;23;19923;-78
2022/09/08 16:36:32;;;;;;;;;;;18.60;99.90;;;;;;6179838;23;20250;-81
2022/09/08 16:39:07;;;;;;;;;;;18.50;99.90;;;;;;6181089;23;19916;-80
2022/09/08 16:41:52;;;;;;;;;;;18.60;99.90;;;;;;6156047;23;19920;-77
2022/09/08 16:44:43;;;;;;;;;;;18.50;99.90;;;;;;6160091;23;20292;-79
2022/09/08 16:47:14;;;;;;;;;;;18.50;99.90;;;;;;6156173;23;19958;-79
2022/09/08 16:49:49;;;;;;;;;;;18.50;99.90;;;;;;6155641;23;20349;-77
2022/09/08 16:52:21;;;;;;;;;;;18.40;99.90;;;;;;6157895;22;20338;-77
2022/09/08 16:54:55;;;;;;;;;;;18.40;99.90;;;;;;6156070;23;19917;-79
2022/09/08 16:58:06;;;;;;;;;;;18.40;99.90;;;;;;6156099;23;19961;-78
2022/09/08 17:00:59;;;;;;;;;;;18.40;99.90;;;;;;6155930;23;20003;-81
2022/09/08 17:03:47;;;;;;;;;;;18.40;99.90;;;;;;6147494;23;19920;-81
2022/09/08 17:06:25;;;;;;;;;;;18.20;99.90;;;;;;6156522;23;19963;-78
2022/09/08 17:08:55;;;;;;;;;;;18.20;99.90;;;;;;6156326;23;19916;-79
2022/09/08 17:11:20;;;;;;;;;;;18.10;99.90;;;;;;6155936;23;19916;-77
2022/09/08 17:13:48;;;;;;;;;;;18.10;99.90;;;;;;6156085;23;20314;-78
2022/09/08 17:16:43;;;;;;;;;;;18.00;99.90;;;;;;6158836;23;19923;-78
2022/09/08 17:19:14;;;;;;;;;;;18.00;99.90;;;;;;6156153;23;19923;-79
2022/09/08 17:22:01;;;;;;;;;;;17.90;99.90;;;;;;6184069;23;19944;-79
2022/09/08 17:28:01;;;;;;;;;;;17.80;99.90;;;;;;6193320;23;19923;-82
2022/09/08 17:30:28;;;;;;;;;;;17.80;99.90;;;;;;6168910;23;19917;-77
2022/09/08 17:32:55;;;;;;;;;;;17.70;99.90;;;;;;6171552;23;19916;-81
2022/09/08 17:35:50;;;;;;;;;;;17.60;99.90;;;;;;6170214;23;19923;-78
2022/09/08 17:38:27;;;;;;;;;;;17.60;99.90;;;;;;6057336;23;19921;-78
2022/09/08 17:40:56;;;;;;;;;;;17.60;99.90;;;;;;6181782;23;19921;-79
2022/09/08 17:43:27;;;;;;;;;;;17.50;99.90;;;;;;6155822;23;20045;-77
2022/09/08 17:46:17;;;;;;;;;;;17.40;99.90;;;;;;6180721;23;19917;-79
2022/09/08 17:48:53;;;;;;;;;;;17.40;99.90;;;;;;6101798;23;19917;-78
2022/09/08 17:51:24;;;;;;;;;;;17.30;99.90;;;;;;6155571;23;20007;-78
2022/09/08 17:53:51;;;;;;;;;;;17.30;99.90;;;;;;6155991;23;19916;-76
2022/09/08 17:56:25;;;;;;;;;;;17.20;99.90;;;;;;6155344;23;19923;-78
2022/09/08 17:59:07;;;;;;;;;;;17.10;99.90;;;;;;6155258;23;19987;-79
2022/09/08 18:01:33;;;;;;;;;;;17.00;99.90;;;;;;6180307;23;19955;-78
2022/09/08 18:04:05;;;;;;;;;;;17.00;99.90;;;;;;6154539;23;20327;-78
2022/09/08 18:06:43;;;;;;;;;;;16.90;99.90;;;;;;6155319;23;19923;-80
2022/09/08 18:09:18;;;;;;;;;;;16.90;99.90;;;;;;6156020;23;19916;-78
2022/09/08 18:11:50;;;;;;;;;;;16.80;99.90;;;;;;6155906;23;19916;-80
2022/09/08 18:14:21;;;;;;;;;;;16.80;99.90;;;;;;6180402;23;19963;-78
2022/09/08 18:16:56;;;;;;;;;;;16.80;99.90;;;;;;6131694;23;19938;-78
2022/09/08 18:19:37;;;;;;;;;;;16.80;99.90;;;;;;6180983;23;19952;-78
2022/09/08 18:22:12;;;;;;;;;;;16.70;99.90;;;;;;6155204;23;19920;-78
2022/09/08 18:24:41;;;;;;;;;;;16.70;99.90;;;;;;6155518;23;19954;-78
2022/09/08 18:27:18;;;;;;;;;;;16.70;99.90;;;;;;6155666;23;19917;-79
2022/09/08 18:30:05;;;;;;;;;;;16.70;99.90;;;;;;6155589;23;19982;-80
2022/09/08 18:32:34;;;;;;;;;;;16.70;99.90;;;;;;6180357;23;19916;-77
2022/09/08 18:35:09;;;;;;;;;;;16.60;99.90;;;;;;6155614;23;19991;-79
2022/09/08 18:37:35;;;;;;;;;;;16.60;99.90;;;;;;6154715;23;19923;-80
2022/09/08 18:40:11;;;;;;;;;;;16.60;99.90;;;;;;6155288;23;19916;-80
2022/09/08 19:00:34;;;;;;;;;;;16.40;99.90;;;;;;6154843;23;19920;-75
2022/09/08 19:03:14;;;;;;;;;;;16.30;99.90;;;;;;6048111;23;20374;-80
2022/09/08 19:05:40;;;;;;;;;;;16.30;99.90;;;;;;6048376;23;19917;-77
2022/09/08 19:08:18;;;;;;;;;;;16.30;99.90;;;;;;6117161;23;20003;-76
2022/09/08 19:10:45;;;;;;;;;;;16.30;99.90;;;;;;6116664;23;19921;-72
2022/09/08 19:13:28;;;;;;;;;;;16.20;99.90;;;;;;6092776;23;19998;-71
2022/09/08 19:16:04;;;;;;;;;;;16.20;99.90;;;;;;6092903;23;19953;-72
2022/09/08 19:18:33;;;;;;;;;;;16.20;99.90;;;;;;6092844;23;19921;-73
2022/09/08 19:21:00;;;;;;;;;;;16.10;99.90;;;;;;6092534;23;19921;-75
2022/09/08 20:37:33;;;;;;;;;;;;;;;;;;;;;
2022/09/08 20:40:46;;;;;;;;;;;16.00;99.90;;;;;;6093956;23;19931;-81
2022/09/08 20:44:08;;;;;;;;;;;16.00;99.90;;;;;;6183588;23;20004;-82
2022/09/08 20:46:54;;;;;;;;;;;15.90;99.90;;;;;;6158330;23;19963;-79
2022/09/08 20:49:20;;;;;;;;;;;15.90;99.90;;;;;;6101461;23;20286;-78
2022/09/08 20:52:01;;;;;;;;;;;15.90;99.90;;;;;;6067917;23;20000;-80
2022/09/08 20:54:46;;;;;;;;;;;16.00;99.90;;;;;;6068030;23;19913;-77
2022/09/08 20:57:31;;;;;;;;;;;15.90;99.90;;;;;;6068213;23;19919;-77
2022/09/08 20:59:57;;;;;;;;;;;15.80;99.90;;;;;;6067771;23;19959;-77
2022/09/08 21:02:26;;;;;;;;;;;15.80;99.90;;;;;;6068345;23;19917;-78
2022/09/08 21:05:03;;;;;;;;;;;15.80;99.90;;;;;;6067750;23;19994;-78
2022/09/08 21:07:34;;;;;;;;;;;15.70;99.90;;;;;;6068169;23;20267;-79
2022/09/08 21:10:12;;;;;;;;;;;15.70;99.90;;;;;;6067808;23;19917;-78
2022/09/08 21:13:00;;;;;;;;;;;15.70;99.90;;;;;;6067309;23;19988;-80
2022/09/08 21:15:42;;;;;;;;;;;15.70;99.90;;;;;;6067545;23;19913;-80
2022/09/08 21:18:41;;;;;;;;;;;15.60;99.90;;;;;;6067275;23;19917;-86
